• Join FlightAware (Why Join?)
  • Login
  • US Flag 
03:40PM EST


 

Airport Tracker/Info


-or-


 

Live Flight TrackerFlight Track Log ✈ N450S ✈ 14-Apr-2013 ✈ KSKY - KAPF

Flight Track Log - Related Links

Times and Time Zones

All times are in EDT time to prevent confusion due to time zone crossing. See the N450S flight status page for this flight to view local times or setup timezone preferences in your user account.

Time Position Orientation Groundspeed Altitude Reporting Facility
EDT Latitude Longitude Course Direction KTS MPH feet Rate Location/Type
07:51AM 41.4256 -82.6961 188° South 153 176 1,900  Level Cleveland Center
07:52AM 41.4131 -82.6983 188° South 158 182 2,600 2,040 Climbing Cleveland Center
07:53AM 41.3736 -82.6917 173° South 143 165 4,600 1,920 Climbing Cleveland Center
07:53AM 41.3319 -82.6819 170° South 170 196 6,500 1,860 Climbing Cleveland Center
07:54AM 41.2883 -82.6806 179° South 170 196 8,300 1,800 Climbing Cleveland Center
07:55AM 41.2383 -82.6761 176° South 170 196 10,100 1,680 Climbing Cleveland Center
07:56AM 41.1883 -82.6719 176° South 180 207 11,700 1,620 Climbing Cleveland Center
07:57AM 41.1319 -82.6700 179° South 187 215 13,400 1,680 Climbing Cleveland Center
07:58AM 41.0758 -82.6628 174° South 199 229 15,100 1,620 Climbing Cleveland Center
07:59AM 41.0197 -82.6581 176° South 199 229 16,700 1,500 Climbing Cleveland Center
08:01AM 40.9347 -82.6497 176° South 207 238 19,000 1,440 Climbing Indianapolis Center
08:02AM 40.8803 -82.6450 176° South 198 228 20,500 1,380 Climbing Indianapolis Center
08:03AM 40.8272 -82.6414 177° South 191 220 21,900 1,200 Climbing Indianapolis Center
08:04AM 40.7719 -82.6375 177° South 196 226 23,000 1,020 Climbing Indianapolis Center
08:05AM 40.7158 -82.6328 176° South 201 231 24,000 480 Climbing Indianapolis Center
08:06AM 40.6419 -82.6275 177° South 224 258 24,000  Level Indianapolis Center
08:07AM 40.5681 -82.6189 175° South 253 291 24,000  Level Indianapolis Center
08:08AM 40.4914 -82.6136 177° South 267 307 24,000  Level Indianapolis Center
08:09AM 40.4142 -82.6075 177° South 275 316 24,000  Level Indianapolis Center
08:10AM 40.3369 -82.6022 177° South 276 318 24,000  Level Indianapolis Center
08:11AM 40.2606 -82.5950 176° South 274 315 24,000  Level Indianapolis Center
08:12AM 40.1808 -82.5914 178° South 276 318 24,000  Level Indianapolis Center
08:13AM 40.1011 -82.5833 176° South 281 323 24,000  Level Indianapolis Center
08:14AM 40.0222 -82.5772 177° South 281 323 24,000  Level Indianapolis Center
08:15AM 39.9442 -82.5706 176° South 279 321 24,000  Level Indianapolis Center
08:16AM 39.8664 -82.5639 176° South 276 318 24,000  Level Indianapolis Center
08:17AM 39.7881 -82.5572 176° South 278 320 24,000  Level Indianapolis Center
08:18AM 39.7114 -82.5508 176° South 274 315 24,000  Level Indianapolis Center
08:19AM 39.6314 -82.5447 177° South 282 325 24,000  Level Indianapolis Center
08:20AM 39.5525 -82.5369 176° South 282 325 24,000  Level Indianapolis Center
08:21AM 39.4733 -82.5314 177° South 282 325 24,000  Level Indianapolis Center
08:22AM 39.3942 -82.5242 176° South 284 327 24,000  Level Indianapolis Center
08:23AM 39.3156 -82.5178 176° South 282 325 24,000  Level Indianapolis Center
08:25AM 39.2347 -82.5103 176° South 287 330 24,000  Level Indianapolis Center
08:26AM 39.1489 -82.5031 176° South 285 328 24,000  Level Indianapolis Center
08:27AM 39.0686 -82.4961 176° South 289 333 24,000  Level Indianapolis Center
08:28AM 38.9886 -82.4906 177° South 288 331 24,000  Level Indianapolis Center
08:29AM 38.9089 -82.4836 176° South 288 331 24,000  Level Indianapolis Center
08:30AM 38.8303 -82.4772 176° South 284 327 24,000  Level Indianapolis Center
08:31AM 38.7494 -82.4703 176° South 289 333 24,000  Level Indianapolis Center
08:32AM 38.6697 -82.4636 176° South 287 330 24,000  Level Indianapolis Center
08:33AM 38.5908 -82.4581 177° South 285 328 24,000  Level Indianapolis Center
08:34AM 38.4953 -82.4497 176° South 286 329 24,000  Level Indianapolis Center
08:35AM 38.4175 -82.4431 176° South 282 325 24,000  Level Indianapolis Center
08:36AM 38.3389 -82.4364 176° South 283 326 24,000  Level Indianapolis Center
08:37AM 38.2614 -82.4317 177° South 280 322 24,000  Level Indianapolis Center
08:38AM 38.1833 -82.4244 176° South 278 320 24,000  Level Indianapolis Center
08:39AM 38.1050 -82.4178 176° South 279 321 24,000  Level Indianapolis Center
08:40AM 38.0281 -82.4125 177° South 276 318 24,000  Level Indianapolis Center
08:41AM 37.9511 -82.4067 177° South 276 318 24,000  Level Indianapolis Center
08:42AM 37.8603 -82.3992 176° South 277 319 24,000  Level Indianapolis Center
08:43AM 37.7828 -82.3936 177° South 278 320 24,000  Level Indianapolis Center
08:44AM 37.7047 -82.3867 176° South 281 323 24,000  Level Indianapolis Center
08:45AM 37.6264 -82.3811 177° South 280 322 24,000  Level Indianapolis Center
08:46AM 37.5481 -82.3747 176° South 280 322 24,000  Level Indianapolis Center
08:47AM 37.4722 -82.3692 177° South 276 318 24,000  Level Indianapolis Center
08:48AM 37.3953 -82.3622 176° South 276 318 24,000  Level Indianapolis Center
08:49AM 37.3189 -82.3572 177° South 273 314 24,000  Level Indianapolis Center
08:50AM 37.2414 -82.3519 177° South 276 318 24,000  Level Indianapolis Center
08:51AM 37.1644 -82.3450 176° South 276 318 24,000  Level Indianapolis Center
08:52AM 37.0997 -82.3422 178° South 289 333 24,000  Level Atlanta Center
08:53AM 37.0244 -82.3358 176° South 283 326 24,000  Level Atlanta Center
08:54AM 36.9494 -82.3297 176° South 277 319 24,000  Level Atlanta Center
08:55AM 36.8742 -82.3211 175° South 277 319 24,000  Level Atlanta Center
08:56AM 36.8053 -82.3200 179° South 272 313 24,000  Level Atlanta Center
08:57AM 36.7303 -82.3136 176° South 272 313 24,000  Level Atlanta Center
08:58AM 36.6550 -82.3075 176° South 272 313 24,000  Level Atlanta Center
08:59AM 36.5778 -82.2989 175° South 272 313 24,000  Level Atlanta Center
09:00AM 36.5006 -82.2956 178° South 272 313 24,000  Level Atlanta Center
09:01AM 36.4253 -82.2894 176° South 272 313 24,000  Level Atlanta Center
09:02AM 36.3503 -82.2833 176° South 272 313 24,000  Level Atlanta Center
09:03AM 36.2731 -82.2772 176° South 272 313 24,000  Level Atlanta Center
09:04AM 36.1958 -82.2711 176° South 277 319 24,000  Level Atlanta Center
09:05AM 36.1228 -82.2678 178° South 272 313 24,000  Level Atlanta Center
09:06AM 36.0475 -82.2617 176° South 272 313 24,000  Level Atlanta Center
09:07AM 35.9722 -82.2556 176° South 272 313 24,000  Level Atlanta Center
09:08AM 35.8886 -82.2472 175° South 272 313 24,000  Level Atlanta Center
09:09AM 35.8136 -82.2411 176° South 272 313 24,000  Level Atlanta Center
09:10AM 35.7447 -82.2400 179° South 272 313 24,000  Level Atlanta Center
09:11AM 35.6694 -82.2339 176° South 272 313 24,000  Level Atlanta Center
09:12AM 35.5944 -82.2281 176° South 272 313 24,000  Level Atlanta Center
09:13AM 35.5192 -82.2219 176° South 272 313 24,000  Level Atlanta Center
09:14AM 35.4356 -82.2161 177° South 277 319 24,000  Level Atlanta Center
09:15AM 35.3625 -82.2103 176° South 272 313 24,000  Level Atlanta Center
09:16AM 35.2872 -82.2042 176° South 272 313 24,000  Level Atlanta Center
09:17AM 35.2119 -82.1983 176° South 279 321 24,000  Level Atlanta Center
09:18AM 35.1369 -82.1922 176° South 274 315 24,000  Level Atlanta Center
09:19AM 35.0617 -82.1864 176° South 274 315 24,000  Level Atlanta Center
09:20AM 34.9867 -82.1856 179° South 274 315 24,000  Level Atlanta Center
09:21AM 34.9092 -82.1772 175° South 279 321 24,000  Level Atlanta Center
09:22AM 34.8361 -82.1711 176° South 279 321 24,000  Level Atlanta Center
09:23AM 34.7631 -82.1653 176° South 273 314 24,000  Level Atlanta Center
09:24AM 34.6878 -82.1594 176° South 273 314 24,000  Level Atlanta Center
09:25AM 34.6106 -82.1533 176° South 273 314 24,000  Level Atlanta Center
09:26AM 34.5372 -82.1500 178° South 273 314 24,000  Level Atlanta Center
09:27AM 34.4619 -82.1417 175° South 273 314 24,000  Level Atlanta Center
09:28AM 34.3889 -82.1358 176° South 273 314 24,000  Level Atlanta Center
09:29AM 34.3158 -82.1325 178° South 273 314 24,000  Level Atlanta Center
09:30AM 34.2447 -82.1264 176° South 278 320 24,000  Level Atlanta Center
09:31AM 34.1717 -82.1206 176° South 273 314 24,000  Level Atlanta Center
09:32AM 34.0944 -82.1172 178° South 273 314 24,000  Level Atlanta Center
09:33AM 34.0211 -82.1089 175° South 273 314 24,000  Level Atlanta Center
09:34AM 33.9439 -82.1056 178° South 273 314 24,000  Level Atlanta Center
09:35AM 33.8686 -82.0972 175° South 273 314 24,000  Level Atlanta Center
09:36AM 33.7872 -82.0917 177° South 273 314 24,000  Level Atlanta Center
09:37AM 33.7142 -82.0883 178° South 273 314 24,000  Level Atlanta Center
09:38AM 33.6389 -82.0825 176° South 273 314 24,000  Level Atlanta Center
09:39AM 33.5656 -82.0767 176° South 273 314 24,000  Level Atlanta Center
09:40AM 33.4925 -82.0733 178° South 273 314 24,000  Level Atlanta Center
09:41AM 33.4214 -82.0675 176° South 273 314 24,000  Level Atlanta Center
09:42AM 33.3464 -82.0619 176° South 273 314 24,000  Level Atlanta Center
09:43AM 33.2731 -82.0561 176° South 273 314 24,000  Level Atlanta Center
09:44AM 33.2000 -82.0528 178° South 273 314 24,000  Level Atlanta Center
09:45AM 33.1289 -82.0469 176° South 268 308 24,000  Level Atlanta Center
09:47AM 33.0028 -82.0356 176° South 270 311 24,000  Level Jacksonville Center
09:48AM 32.9297 -82.0336 179° South 270 311 24,000  Level Jacksonville Center
09:49AM 32.8608 -82.0269 175° South 265 305 24,000  Level Jacksonville Center
09:50AM 32.7856 -82.0203 176° South 258 297 24,000  Level Jacksonville Center
09:51AM 32.7147 -82.0186 179° South 253 291 24,000  Level Jacksonville Center
09:52AM 32.6436 -82.0119 175° South 253 291 24,000  Level Jacksonville Center
09:53AM 32.5725 -82.0050 175° South 253 291 24,000  Level Jacksonville Center
09:54AM 32.5078 -82.0033 179° South 253 291 24,000  Level Jacksonville Center
09:55AM 32.4286 -81.9967 176° South 253 291 24,000  Level Jacksonville Center
09:56AM 32.3594 -81.9925 177° South 253 291 24,000  Level Jacksonville Center
09:57AM 32.2947 -81.9906 179° South 253 291 24,000  Level Jacksonville Center
09:58AM 32.2197 -81.9839 176° South 253 291 24,000  Level Jacksonville Center
09:59AM 32.1569 -81.9797 177° South 253 291 24,000  Level Jacksonville Center
10:00AM 32.0817 -81.9731 176° South 253 291 24,000  Level Jacksonville Center
10:01AM 32.0150 -81.9689 177° South 253 291 24,000  Level Jacksonville Center
10:02AM 31.9522 -81.9694 180° South 253 291 24,000  Level Jacksonville Center
10:03AM 31.8750 -81.9753 184° South 253 291 24,000  Level Jacksonville Center
10:04AM 31.8147 -81.9806 184° South 253 291 24,000  Level Jacksonville Center
10:05AM 31.7394 -81.9886 185° South 253 291 24,000  Level Jacksonville Center
10:06AM 31.6728 -81.9942 184° South 253 291 24,000  Level Jacksonville Center
10:07AM 31.6122 -82.0022 186° South 248 285 24,000  Level Jacksonville Center
10:08AM 31.5372 -82.0078 184° South 248 285 24,000  Level Jacksonville Center
10:09AM 31.4683 -82.0158 186° South 260 299 24,000  Level Jacksonville Center
10:10AM 31.4014 -82.0211 184° South 260 299 24,000  Level Jacksonville Center
10:11AM 31.3283 -82.0292 185° South 260 299 24,000  Level Jacksonville Center
10:12AM 31.2597 -82.0369 186° South 260 299 24,000  Level Jacksonville Center
10:13AM 31.1886 -82.0425 184° South 260 299 24,000  Level Jacksonville Center
10:14AM 31.1136 -82.0506 185° South 260 299 24,000  Level Jacksonville Center
10:15AM 31.0425 -82.0561 184° South 260 299 24,000  Level Jacksonville Center
10:16AM 30.9717 -82.0639 185° South 255 293 24,000  Level Jacksonville Center
10:17AM 30.8986 -82.0694 184° South 255 293 24,000  Level Jacksonville Center
10:18AM 30.8275 -82.0750 184° South 260 299 24,000  Level Jacksonville Center
10:19AM 30.7547 -82.0803 184° South 260 299 24,000  Level Jacksonville Center
10:20AM 30.6878 -82.0881 186° South 254 292 24,000  Level Jacksonville Center
10:21AM 30.6189 -82.0936 184° South 254 292 24,000  Level Jacksonville Center
10:22AM 30.5481 -82.0967 182° South 254 292 24,000  Level Jacksonville Center
10:23AM 30.4769 -82.1044 185° South 254 292 24,000  Level Jacksonville Center
10:24AM 30.4039 -82.1097 184° South 254 292 24,000  Level Jacksonville Center
10:25AM 30.3353 -82.1175 186° South 254 292 24,000  Level Jacksonville Center
10:26AM 30.2600 -82.1256 185° South 259 298 24,000  Level Jacksonville Center
10:27AM 30.1892 -82.1283 182° South 259 298 24,000  Level Jacksonville Center
10:28AM 30.1158 -82.1169 172° South 259 298 24,000  Level Jacksonville Center
10:29AM 30.0447 -82.1008 169° South 259 298 24,000  Level Jacksonville Center
10:30AM 29.9614 -82.0894 173° South 264 304 24,000  Level Jacksonville Center
10:31AM 29.8881 -82.0733 169° South 269 310 24,000  Level Jacksonville Center
10:32AM 29.8128 -82.0594 171° South 275 316 24,000  Level Jacksonville Center
10:33AM 29.7481 -82.0433 168° South 275 316 24,000  Level Jacksonville Center
10:34AM 29.6664 -82.0297 172° South 275 316 24,000  Level Jacksonville Center
10:35AM 29.5933 -82.0161 171° South 275 316 24,000  Level Jacksonville Center
10:36AM 29.5203 -82.0000 169° South 275 316 24,000  Level Jacksonville Center
10:37AM 29.4450 -81.9886 172° South 275 316 24,000 -120 Level Jacksonville Center
10:38AM 29.3739 -81.9728 169° South 275 316 23,800 -360 Descending Jacksonville Center
10:39AM 29.2964 -81.9567 170° South 280 322 23,300 -420 Descending Jacksonville Center
10:40AM 29.2211 -81.9433 171° South 280 322 23,000 -180 Descending Jacksonville Center
10:41AM 29.1500 -81.9247 167° South 280 322 23,000  Level Jacksonville Center
10:42AM 29.0769 -81.9089 169° South 280 322 23,000  Level Jacksonville Center
10:43AM 29.0017 -81.8978 173° South 275 316 23,000  Level Jacksonville Center
10:44AM 28.9203 -81.8819 170° South 275 316 23,000  Level Jacksonville Center
10:45AM 28.8450 -81.8639 168° South 275 316 23,000  Level Jacksonville Center
10:46AM 28.7697 -81.8528 173° South 275 316 23,000  Level Jacksonville Center
10:47AM 28.6964 -81.8347 168° South 275 316 23,000  Level Jacksonville Center
10:48AM 28.6358 -81.8233 171° South 275 316 23,000  Level Jacksonville Center
10:49AM 28.5628 -81.8125 173° South 270 311 23,000  Level Jacksonville Center
10:51AM 28.4003 -81.7650 166° South 252 290 23,000  Level Miami Center
10:52AM 28.3342 -81.7481 167° South 258 297 23,000  Level Miami Center
10:53AM 28.2619 -81.7261 165° South 258 297 23,000 -240 Level Miami Center
10:54AM 28.1894 -81.7089 168° South 258 297 22,600 -660 Descending Miami Center
10:55AM 28.1086 -81.6936 171° South 277 319 21,700 -960 Descending Miami Center
10:56AM 28.0300 -81.6783 170° South 288 331 20,700 -960 Descending Miami Center
10:57AM 27.9469 -81.6608 169° South 310 357 19,800 -960 Descending Miami Center
10:58AM 27.8681 -81.6481 172° South 310 357 18,800 -1,080 Descending Miami Center
10:59AM 27.7894 -81.6308 169° South 310 357 17,700 -1,080 Descending Miami Center
11:00AM 27.7125 -81.6181 172° South 298 343 16,700 -1,020 Descending Miami Center
11:01AM 27.6339 -81.6031 170° South 298 343 15,700 -1,020 Descending Miami Center
11:02AM 27.5592 -81.5861 169° South 286 329 14,700 -1,140 Descending Miami Center
11:03AM 27.4867 -81.5736 171° South 280 322 13,500 -1,260 Descending Miami Center
11:04AM 27.4119 -81.5589 170° South 274 315 12,200 -1,260 Descending Miami Center
11:05AM 27.3372 -81.5464 172° South 274 315 11,000 -1,620 Descending Miami Center
11:06AM 27.2647 -81.5319 170° South 274 315 9,000 -1,020 Descending Miami Center
11:07AM 27.1942 -81.5175 170° South 274 315 9,000  Level Miami Center